Time;durP1;ratioP1;P1;durP2;ratioP2;P2;SDS_P1;SDS_P2;PMS_P1;PMS_P2;Temp;Humidity;BMP_temperature;BMP_pressure;BME280_temperature;BME280_humidity;BME280_pressure;Samples;Min_cycle;Max_cycle;Signal;HPM_P1;HPM_P2
2023/11/22 00:01:27;;;;;;;27.60;17.60;;;;;;;-0.45;100.00;100436.48;88449;282;137156;-71
2023/11/22 00:03:29;;;;;;;27.20;19.50;;;;;;;-0.46;100.00;100431.27;88608;277;24020;-69
2023/11/22 00:05:31;;;;;;;30.20;17.10;;;;;;;-0.44;100.00;100435.16;88583;281;138139;-73
2023/11/22 00:07:33;;;;;;;30.30;20.50;;;;;;;-0.42;100.00;100434.50;88656;282;22527;-72
2023/11/22 00:09:39;;;;;;;25.30;18.20;;;;;;;-0.42;100.00;100430.09;88425;282;137415;-72
2023/11/22 00:11:42;;;;;;;30.70;18.70;;;;;;;-0.45;100.00;100429.83;88576;274;22547;-71
2023/11/22 00:13:44;;;;;;;27.10;18.70;;;;;;;-0.50;100.00;100430.77;88451;279;136405;-71
2023/11/22 00:15:46;;;;;;;29.30;21.10;;;;;;;-0.54;100.00;100432.29;88581;282;24018;-69
2023/11/22 00:17:48;;;;;;;28.40;19.20;;;;;;;-0.59;100.00;100431.23;88363;275;136622;-71
2023/11/22 00:19:51;;;;;;;30.10;20.90;;;;;;;-0.64;100.00;100428.58;88611;281;24100;-71
2023/11/22 00:21:53;;;;;;;28.00;19.50;;;;;;;-0.63;100.00;100420.34;88607;282;137163;-72
2023/11/22 00:23:55;;;;;;;27.00;19.20;;;;;;;-0.60;100.00;100420.23;88679;282;24055;-71
2023/11/22 00:25:57;;;;;;;26.50;18.40;;;;;;;-0.56;100.00;100419.86;88517;282;137389;-73
2023/11/22 00:28:00;;;;;;;22.70;16.20;;;;;;;-0.56;100.00;100417.25;88642;275;25123;-73
2023/11/22 00:30:04;;;;;;;29.60;19.20;;;;;;;-0.57;100.00;100421.52;88320;274;136892;-74
2023/11/22 00:32:07;;;;;;;31.20;19.10;;;;;;;-0.58;100.00;100425.38;88478;274;137329;-72
2023/11/22 00:34:11;;;;;;;29.10;19.50;;;;;;;-0.60;100.00;100431.25;88644;282;22529;-73
2023/11/22 00:36:13;;;;;;;29.90;19.80;;;;;;;-0.65;100.00;100427.64;89774;279;137235;-72
2023/11/22 00:38:15;;;;;;;30.10;21.10;;;;;;;-0.69;100.00;100427.27;89920;282;22555;-71
2023/11/22 00:40:17;;;;;;;29.70;18.60;;;;;;;-0.80;100.00;100412.19;89865;274;136855;-72
2023/11/22 00:42:20;;;;;;;29.60;17.90;;;;;;;-0.80;100.00;100410.12;90157;281;23984;-73
2023/11/22 00:44:22;;;;;;;30.90;18.60;;;;;;;-0.70;100.00;100421.34;88852;274;137520;-73
2023/11/22 00:46:24;;;;;;;29.30;19.80;;;;;;;-0.66;100.00;100416.94;88658;282;22553;-74
2023/11/22 00:48:26;;;;;;;27.00;19.20;;;;;;;-0.65;100.00;100410.50;88454;274;137443;-72
2023/11/22 00:50:29;;;;;;;27.60;19.30;;;;;;;-0.66;100.00;100413.60;88598;281;22549;-73
2023/11/22 00:52:31;;;;;;;30.40;18.40;;;;;;;-0.70;100.00;100417.55;88446;278;136681;-74
2023/11/22 00:54:33;;;;;;;28.50;19.30;;;;;;;-0.75;100.00;100418.45;88527;282;22527;-73
2023/11/22 00:56:35;;;;;;;32.30;20.40;;;;;;;-0.81;100.00;100419.55;88420;274;136535;-69
2023/11/22 00:58:38;;;;;;;30.90;18.60;;;;;;;-0.82;100.00;100413.54;88460;285;25327;-70
2023/11/22 01:00:40;;;;;;;31.10;18.90;;;;;;;-0.80;100.00;100407.29;88179;282;136838;-73
2023/11/22 01:02:44;;;;;;;30.20;19.90;;;;;;;-0.79;100.00;100412.97;88593;282;22543;-71
2023/11/22 01:04:46;;;;;;;30.90;20.80;;;;;;;-0.78;100.00;100410.11;88527;277;137198;-70
2023/11/22 01:06:48;;;;;;;31.60;20.90;;;;;;;-0.80;100.00;100408.31;88460;275;22539;-71
2023/11/22 01:08:50;;;;;;;25.70;17.90;;;;;;;-0.83;100.00;100411.35;88435;274;137179;-70
2023/11/22 01:10:52;;;;;;;29.90;19.40;;;;;;;-0.85;100.00;100410.83;88516;274;24017;-73
2023/11/22 01:12:54;;;;;;;29.00;19.00;;;;;;;-0.85;100.00;100412.58;88374;282;136794;-72
2023/11/22 01:14:57;;;;;;;28.30;18.60;;;;;;;-0.86;100.00;100402.66;88540;281;22562;-71
2023/11/22 01:17:01;;;;;;;32.30;20.90;;;;;;;-0.84;100.00;100401.47;88330;280;137599;-76
2023/11/22 01:19:03;;;;;;;25.50;18.30;;;;;;;-0.82;100.00;100398.92;88623;282;25106;-75
2023/11/22 01:21:05;;;;;;;30.70;19.10;;;;;;;-0.82;100.00;100400.45;88421;282;137382;-75
2023/11/22 01:23:08;;;;;;;27.70;19.00;;;;;;;-0.81;100.00;100403.52;88760;274;25208;-71
2023/11/22 01:25:10;;;;;;;31.10;19.30;;;;;;;-0.81;100.00;100404.90;88519;283;137371;-70
2023/11/22 01:27:12;;;;;;;28.90;18.60;;;;;;;-0.82;100.00;100408.34;88467;283;25250;-71
2023/11/22 01:29:14;;;;;;;30.20;20.10;;;;;;;-0.80;100.00;100410.98;88653;281;137189;-66
2023/11/22 01:31:20;;;;;;;26.30;18.70;;;;;;;-0.79;100.00;100413.70;88943;281;22572;-70
2023/11/22 01:33:22;;;;;;;31.10;19.80;;;;;;;-0.80;100.00;100418.29;88842;282;137020;-68
2023/11/22 01:35:24;;;;;;;30.20;19.70;;;;;;;-0.83;100.00;100414.63;88924;282;24027;-67
2023/11/22 01:37:27;;;;;;;31.20;19.20;;;;;;;-0.86;100.00;100416.27;88643;282;136519;-68
2023/11/22 01:39:31;;;;;;;30.90;20.00;;;;;;;-0.89;100.00;100417.74;88741;274;22552;-67
2023/11/22 01:41:34;;;;;;;33.50;19.90;;;;;;;-0.88;100.00;100419.79;88630;279;136716;-72
2023/11/22 01:43:36;;;;;;;33.50;21.10;;;;;;;-0.88;100.00;100419.42;88622;281;22515;-68
2023/11/22 01:45:38;;;;;;;32.00;20.60;;;;;;;-0.88;100.00;100419.44;88520;281;136990;-71
2023/11/22 01:47:40;;;;;;;28.60;19.20;;;;;;;-0.88;100.00;100419.92;88729;274;24014;-70
2023/11/22 01:49:43;;;;;;;57.00;20.70;;;;;;;-0.86;100.00;100422.55;88670;281;137733;-73
2023/11/22 01:51:45;;;;;;;27.90;19.80;;;;;;;-0.82;100.00;100417.17;88574;282;24092;-71
2023/11/22 01:53:49;;;;;;;33.00;19.80;;;;;;;-0.80;100.00;100416.05;88415;278;137297;-71
2023/11/22 01:55:53;;;;;;;29.50;19.10;;;;;;;-0.77;100.00;100411.64;88643;274;23705;-67
2023/11/22 01:57:56;;;;;;;28.10;18.60;;;;;;;-0.75;100.00;100411.85;88395;275;137162;-71
2023/11/22 02:00:03;;;;;;;30.40;19.80;;;;;;;-0.74;100.00;100415.42;88655;278;25121;-70
2023/11/22 02:02:13;;;;;;;28.50;18.90;;;;;;;-0.72;100.00;100414.41;88625;282;22528;-71
2023/11/22 02:04:16;;;;;;;24.50;17.20;;;;;;;-0.73;100.00;100416.73;88699;275;138847;-67
2023/11/22 02:06:21;;;;;;;27.10;18.60;;;;;;;-0.73;100.00;100412.50;88639;279;24037;-68
2023/11/22 02:08:23;;;;;;;27.30;19.10;;;;;;;-0.72;100.00;100419.08;88511;275;137933;-70
2023/11/22 02:10:25;;;;;;;27.10;18.90;;;;;;;-0.73;100.00;100421.98;88515;281;22574;-71
2023/11/22 02:12:28;;;;;;;27.40;18.30;;;;;;;-0.74;100.00;100426.94;88512;275;137404;-71
2023/11/22 02:14:30;;;;;;;30.30;18.90;;;;;;;-0.74;100.00;100425.05;88478;278;22558;-71
2023/11/22 02:16:32;;;;;;;27.40;19.50;;;;;;;-0.73;100.00;100425.26;88312;282;136888;-70
2023/11/22 02:18:37;;;;;;;28.90;18.80;;;;;;;-0.68;100.00;100423.14;88602;278;23748;-71
2023/11/22 02:20:41;;;;;;;;;;;;;;;-0.67;100.00;100422.21;88385;282;137015;-71
2023/11/22 02:22:45;;;;;;;31.30;19.30;;;;;;;-0.70;100.00;100426.06;90022;282;22537;-70
2023/11/22 02:24:48;;;;;;;29.30;21.10;;;;;;;-0.74;100.00;100433.94;90628;283;136830;-71
2023/11/22 02:26:51;;;;;;;28.40;19.00;;;;;;;-0.77;100.00;100434.48;88638;274;24351;-73
2023/11/22 02:28:53;;;;;;;29.20;18.50;;;;;;;-0.78;100.00;100434.57;88564;281;137042;-74
2023/11/22 02:30:58;;;;;;;31.30;21.20;;;;;;;-0.77;100.00;100429.94;88666;282;22555;-70
2023/11/22 02:32:59;;;;;;;29.30;19.40;;;;;;;-0.77;100.00;100430.79;88539;278;137457;-75
2023/11/22 02:35:04;;;;;;;28.60;20.50;;;;;;;-0.79;100.00;100431.64;88624;282;22524;-73
2023/11/22 02:37:06;;;;;;;29.70;18.90;;;;;;;-0.80;100.00;100431.68;88673;282;138264;-72
2023/11/22 02:39:08;;;;;;;30.90;23.10;;;;;;;-0.80;100.00;100435.19;88544;278;24136;-72
2023/11/22 02:41:11;;;;;;;30.40;20.20;;;;;;;-0.79;100.00;100434.77;88588;274;137233;-71
2023/11/22 02:43:13;;;;;;;29.00;18.80;;;;;;;-0.78;100.00;100437.33;88521;278;25211;-74
2023/11/22 02:45:17;;;;;;;25.90;17.50;;;;;;;-0.76;100.00;100431.93;88676;282;137338;-72
2023/11/22 02:47:19;;;;;;;28.50;18.90;;;;;;;-0.73;100.00;100437.47;88642;283;22538;-72
2023/11/22 02:49:21;;;;;;;33.40;19.20;;;;;;;-0.69;100.00;100438.10;88439;282;137279;-74
2023/11/22 02:51:23;;;;;;;28.70;19.20;;;;;;;-0.68;100.00;100440.96;88646;274;22541;-73
2023/11/22 02:53:28;;;;;;;26.60;19.10;;;;;;;-0.68;100.00;100434.55;88505;277;137308;-73
2023/11/22 02:55:31;;;;;;;24.50;18.10;;;;;;;-0.73;100.00;100432.06;88388;282;22535;-71
2023/11/22 02:57:33;;;;;;;27.80;19.50;;;;;;;-0.78;100.00;100433.28;89595;282;135794;-73
2023/11/22 02:59:35;;;;;;;30.60;20.40;;;;;;;-0.83;100.00;100430.71;90295;282;22531;-71
2023/11/22 03:01:37;;;;;;;30.20;19.50;;;;;;;-0.83;100.00;100431.93;90295;283;136811;-73
2023/11/22 03:03:39;;;;;;;26.50;18.40;;;;;;;-0.79;100.00;100431.69;90073;285;23754;-69
2023/11/22 03:05:42;;;;;;;29.00;18.40;;;;;;;-0.76;100.00;100429.34;89388;281;137026;-71
2023/11/22 03:07:45;;;;;;;27.50;17.80;;;;;;;-0.74;100.00;100430.23;90015;282;22542;-70
2023/11/22 03:09:47;;;;;;;28.60;19.20;;;;;;;-0.73;100.00;100427.56;89981;282;137427;-71
2023/11/22 03:11:50;;;;;;;27.60;17.40;;;;;;;-0.81;100.00;100415.60;90083;279;22599;-70
2023/11/22 03:13:53;;;;;;;25.10;18.70;;;;;;;-0.76;100.00;100425.17;89708;273;136884;-70
2023/11/22 03:15:55;;;;;;;29.40;19.50;;;;;;;-0.76;100.00;100427.46;89241;273;22548;-70
2023/11/22 03:17:59;;;;;;;25.90;17.50;;;;;;;-0.76;100.00;100429.56;88743;281;137196;-69
2023/11/22 03:20:03;;;;;;;29.50;18.50;;;;;;;-0.76;100.00;100431.79;88740;282;22881;-70
2023/11/22 03:22:06;;;;;;;25.90;17.50;;;;;;;-0.78;100.00;100427.20;88854;282;22558;-70
2023/11/22 03:24:09;;;;;;;28.50;17.40;;;;;;;-0.80;100.00;100433.66;88481;277;139047;-73
2023/11/22 03:26:11;;;;;;;29.70;19.70;;;;;;;-0.92;100.00;100418.33;88554;283;25159;-73
2023/11/22 03:28:14;;;;;;;28.60;19.40;;;;;;;-0.85;100.00;100432.64;88578;282;137533;-70
2023/11/22 03:30:16;;;;;;;27.90;19.60;;;;;;;-0.88;100.00;100430.60;88541;282;22544;-70
2023/11/22 03:32:18;;;;;;;22.80;16.70;;;;;;;-0.92;100.00;100431.54;88476;282;137432;-70
2023/11/22 03:34:21;;;;;;;25.90;17.90;;;;;;;-0.94;100.00;100431.85;88470;282;22531;-69
2023/11/22 03:36:24;;;;;;;25.40;17.90;;;;;;;-0.97;100.00;100434.52;88321;283;136859;-70
2023/11/22 03:38:26;;;;;;;30.20;17.30;;;;;;;-0.98;100.00;100434.79;88649;282;22537;-68
2023/11/22 03:40:28;;;;;;;26.30;18.00;;;;;;;-0.99;100.00;100438.16;88410;282;137785;-71
2023/11/22 03:42:30;;;;;;;26.90;17.70;;;;;;;-1.01;100.00;100439.86;88505;274;24055;-70
2023/11/22 03:44:33;;;;;;;26.20;18.00;;;;;;;-1.02;100.00;100442.75;88458;278;137264;-72
2023/11/22 03:46:38;;;;;;;21.40;15.60;;;;;;;-1.36;100.00;100390.77;88623;273;22477;-73
2023/11/22 03:48:41;;;;;;;27.20;17.60;;;;;;;-0.99;100.00;100449.46;88444;281;137896;-71
2023/11/22 03:50:43;;;;;;;25.20;18.90;;;;;;;-0.95;100.00;100451.68;88419;283;24170;-72
2023/11/22 03:52:46;;;;;;;28.90;19.90;;;;;;;-0.93;100.00;100453.60;88378;281;137008;-74
2023/11/22 03:54:48;;;;;;;28.80;19.80;;;;;;;-0.95;100.00;100455.34;88488;282;22544;-73
2023/11/22 03:56:50;;;;;;;28.40;18.80;;;;;;;-1.00;100.00;100456.04;88433;281;136652;-71
2023/11/22 03:58:52;;;;;;;27.90;18.40;;;;;;;-1.05;100.00;100452.02;88690;281;24098;-74
2023/11/22 04:00:55;;;;;;;29.20;19.90;;;;;;;-1.16;100.00;100440.27;88514;281;137475;-72
2023/11/22 04:02:59;;;;;;;29.50;18.50;;;;;;;-1.10;100.00;100442.84;88634;277;24015;-73
2023/11/22 04:05:02;;;;;;;30.30;19.70;;;;;;;-1.03;100.00;100451.15;88565;281;137281;-71
2023/11/22 04:07:04;;;;;;;28.20;17.40;;;;;;;-1.01;100.00;100456.26;88519;281;25168;-72
2023/11/22 04:09:08;;;;;;;27.10;17.20;;;;;;;-1.00;100.00;100458.45;88382;281;138185;-70
2023/11/22 04:11:11;;;;;;;28.10;17.50;;;;;;;-1.08;100.00;100442.80;88454;278;24055;-68
2023/11/22 04:13:13;;;;;;;29.50;16.80;;;;;;;-1.00;100.00;100454.93;88691;274;136878;-71
2023/11/22 04:15:15;;;;;;;25.40;17.80;;;;;;;-1.02;100.00;100460.31;88451;275;22526;-69
2023/11/22 04:17:18;;;;;;;28.80;18.60;;;;;;;-1.04;100.00;100456.31;88430;277;137090;-70
2023/11/22 04:19:20;;;;;;;29.50;18.90;;;;;;;-1.08;100.00;100460.42;88468;282;22773;-69
2023/11/22 04:21:24;;;;;;;26.30;17.40;;;;;;;-1.09;100.00;100460.89;88451;281;136879;-70
2023/11/22 04:23:26;;;;;;;24.80;17.40;;;;;;;-1.06;100.00;100464.64;88585;277;22534;-71
2023/11/22 04:25:29;;;;;;;24.50;17.90;;;;;;;-1.02;100.00;100464.52;88546;281;137704;-70
2023/11/22 04:27:31;;;;;;;31.00;18.60;;;;;;;-1.01;100.00;100466.41;88637;279;23943;-67
2023/11/22 04:29:33;;;;;;;25.30;17.60;;;;;;;-0.99;100.00;100469.53;88594;277;137639;-73
2023/11/22 04:31:35;;;;;;;25.90;16.50;;;;;;;-0.97;100.00;100471.52;88226;281;577690;-73
2023/11/22 04:33:37;;;;;;;24.90;17.10;;;;;;;-1.03;100.00;100466.18;88428;281;138286;-71
2023/11/22 04:35:41;;;;;;;27.20;16.50;;;;;;;-1.05;100.00;100476.25;88789;281;23695;-68
2023/11/22 04:37:44;;;;;;;27.70;18.60;;;;;;;-1.10;100.00;100477.86;88610;274;136558;-70
2023/11/22 04:39:52;;;;;;;26.20;18.40;;;;;;;-1.10;100.00;100477.12;88910;282;22614;-71
2023/11/22 04:41:53;;;;;;;28.60;18.20;;;;;;;-1.04;100.00;100473.23;88445;274;138598;-71
2023/11/22 04:43:55;;;;;;;22.10;15.70;;;;;;;-0.99;100.00;100474.59;88460;276;22639;-74
2023/11/22 04:45:57;;;;;;;28.20;18.50;;;;;;;-0.97;100.00;100477.98;88524;273;137843;-74
2023/11/22 04:48:00;;;;;;;29.40;18.20;;;;;;;-1.01;100.00;100480.02;88493;281;25216;-71
2023/11/22 04:50:02;;;;;;;29.50;19.00;;;;;;;-1.07;100.00;100480.61;88515;275;136709;-72
2023/11/22 04:52:05;;;;;;;30.40;19.50;;;;;;;-1.13;100.00;100482.81;88598;274;136851;-68
2023/11/22 04:54:07;;;;;;;26.30;18.50;;;;;;;-1.18;100.00;100483.43;88571;277;22526;-72
2023/11/22 04:56:09;;;;;;;27.00;19.40;;;;;;;-1.15;100.00;100487.79;88491;281;138747;-68
2023/11/22 04:58:11;;;;;;;26.80;17.90;;;;;;;-1.09;100.00;100491.91;88519;275;25495;-73
2023/11/22 05:00:13;;;;;;;30.20;18.90;;;;;;;-1.06;100.00;100491.83;88352;283;137313;-74
2023/11/22 05:02:16;;;;;;;27.20;18.10;;;;;;;-1.03;100.00;100500.34;88417;274;22597;-73
2023/11/22 05:04:18;;;;;;;28.20;18.30;;;;;;;-1.05;100.00;100499.61;88461;278;136675;-72
2023/11/22 05:06:20;;;;;;;31.10;20.10;;;;;;;-1.09;100.00;100504.65;88417;273;25233;-70
2023/11/22 05:08:22;;;;;;;30.80;18.50;;;;;;;-1.12;100.00;100499.43;88377;274;136846;-71
2023/11/22 05:10:24;;;;;;;29.40;19.10;;;;;;;-1.11;100.00;100500.60;88451;281;22536;-71
2023/11/22 05:12:26;;;;;;;24.00;17.40;;;;;;;-1.08;100.00;100499.71;88337;274;142449;-67
2023/11/22 05:14:28;;;;;;;31.30;19.90;;;;;;;-1.05;100.00;100506.08;88409;274;22537;-72
2023/11/22 05:16:30;;;;;;;26.30;19.10;;;;;;;-1.02;100.00;100506.23;88327;275;137328;-73
2023/11/22 05:18:32;;;;;;;31.10;20.40;;;;;;;-0.99;100.00;100507.73;88557;274;23678;-72
2023/11/22 05:20:34;;;;;;;28.50;20.00;;;;;;;-1.00;100.00;100505.73;88511;281;136488;-71
2023/11/22 05:22:37;;;;;;;35.80;22.70;;;;;;;-1.03;100.00;100505.80;88199;280;24071;-71
2023/11/22 05:24:41;;;;;;;31.10;20.40;;;;;;;-1.06;100.00;100509.80;89306;275;136795;-68
2023/11/22 05:26:45;;;;;;;33.90;20.70;;;;;;;-1.07;100.00;100513.77;90018;278;22627;-70
2023/11/22 05:28:49;;;;;;;34.70;21.50;;;;;;;-1.03;100.00;100511.38;89749;281;137080;-70
2023/11/22 05:30:52;;;;;;;33.60;21.00;;;;;;;-0.96;100.00;100511.23;90124;276;22539;-71
2023/11/22 05:32:53;;;;;;;31.30;19.70;;;;;;;-0.91;100.00;100513.16;88804;274;137093;-72
2023/11/22 05:34:55;;;;;;;32.10;20.80;;;;;;;-0.87;100.00;100519.80;88346;275;22621;-70
2023/11/22 05:36:59;;;;;;;33.40;22.20;;;;;;;-0.95;100.00;100513.91;89627;278;136534;-73
2023/11/22 05:39:05;;;;;;;36.80;23.20;;;;;;;-0.92;100.00;100525.98;88372;274;25084;-70
2023/11/22 05:41:07;;;;;;;35.60;22.30;;;;;;;-0.98;100.00;100530.55;88305;281;136638;-71
2023/11/22 05:43:09;;;;;;;30.90;20.50;;;;;;;-0.99;100.00;100532.88;88555;274;24020;-71
2023/11/22 05:45:14;;;;;;;33.00;22.30;;;;;;;-0.93;100.00;100538.08;89594;277;137049;-69
2023/11/22 05:47:18;;;;;;;31.30;21.00;;;;;;;-0.86;100.00;100541.73;88497;273;22600;-67
2023/11/22 05:49:20;;;;;;;34.00;21.60;;;;;;;-0.82;100.00;100542.86;90968;282;138173;-69
2023/11/22 05:51:22;;;;;;;30.10;20.80;;;;;;;-0.78;100.00;100546.23;88543;274;25083;-70
2023/11/22 05:53:25;;;;;;;32.20;21.40;;;;;;;-0.80;100.00;100549.50;88352;274;136648;-69
2023/11/22 05:55:27;;;;;;;31.40;22.20;;;;;;;-0.90;100.00;100538.15;88493;276;24018;-69
2023/11/22 05:57:30;;;;;;;36.40;23.40;;;;;;;-0.87;100.00;100551.02;88442;278;136469;-69
2023/11/22 05:59:32;;;;;;;30.70;21.50;;;;;;;-0.88;100.00;100551.11;88609;275;23910;-70
2023/11/22 06:01:35;;;;;;;34.40;21.50;;;;;;;-0.84;100.00;100555.52;88582;274;137306;-68
2023/11/22 06:03:38;;;;;;;36.50;23.10;;;;;;;-0.79;100.00;100560.95;88471;274;24049;-70
2023/11/22 06:05:41;;;;;;;33.60;22.90;;;;;;;-0.80;100.00;100565.86;88487;273;137292;-71
2023/11/22 06:07:43;;;;;;;35.00;22.20;;;;;;;-0.80;100.00;100559.95;88534;273;22667;-71
2023/11/22 06:09:45;;;;;;;28.80;21.10;;;;;;;-0.80;100.00;100566.26;88412;273;137655;-70
2023/11/22 06:11:47;;;;;;;36.90;23.20;;;;;;;-1.03;100.00;100539.98;88513;273;23475;-70
2023/11/22 06:13:49;;;;;;;28.90;20.70;;;;;;;-0.86;100.00;100573.36;88357;280;136538;-66
2023/11/22 06:15:51;;;;;;;31.40;22.30;;;;;;;-0.90;100.00;100574.63;88427;275;23712;-71
2023/11/22 06:17:54;;;;;;;32.40;22.40;;;;;;;-0.93;100.00;100573.64;88246;276;136918;-73
2023/11/22 06:19:56;;;;;;;30.90;20.90;;;;;;;-1.02;100.00;100557.36;88370;275;24075;-66
2023/11/22 06:21:58;;;;;;;30.20;21.80;;;;;;;-0.86;100.00;100578.05;88377;282;137964;-71
2023/11/22 06:24:02;;;;;;;31.00;21.70;;;;;;;-0.83;100.00;100579.55;88488;275;22527;-71
2023/11/22 06:26:06;;;;;;;29.30;20.30;;;;;;;-0.81;100.00;100583.44;88433;274;25090;-70
2023/11/22 06:28:10;;;;;;;29.90;21.00;;;;;;;-0.82;100.00;100585.97;88463;277;137577;-71
2023/11/22 06:30:14;;;;;;;27.70;19.40;;;;;;;-0.88;100.00;100590.19;89159;276;23714;-70
2023/11/22 06:32:16;;;;;;;31.50;21.10;;;;;;;-0.94;100.00;100590.48;88381;276;137580;-69
2023/11/22 06:34:18;;;;;;;30.10;19.70;;;;;;;-0.99;100.00;100593.41;88232;275;24095;-69
2023/11/22 06:36:20;;;;;;;24.00;17.90;;;;;;;-1.04;100.00;100591.30;88150;275;137269;-68
2023/11/22 06:38:22;;;;;;;21.10;16.10;;;;;;;-1.09;100.00;100593.04;88267;274;25189;-71
2023/11/22 06:40:24;;;;;;;21.60;14.70;;;;;;;-1.11;100.00;100596.33;88103;273;138155;-69
2023/11/22 06:42:26;;;;;;;18.70;13.70;;;;;;;-1.16;100.00;100602.80;88327;275;22541;-70
2023/11/22 06:44:28;;;;;;;19.00;14.80;;;;;;;-1.24;100.00;100612.95;88261;278;137612;-74
2023/11/22 06:46:30;;;;;;;17.80;13.90;;;;;;;-1.41;100.00;100599.83;88413;281;23952;-76
2023/11/22 06:48:33;;;;;;;15.50;12.00;;;;;;;-1.35;100.00;100611.80;88248;277;138808;-74
2023/11/22 06:50:35;;;;;;;15.60;12.10;;;;;;;-1.44;100.00;100599.99;88548;274;22709;-73
2023/11/22 06:52:39;;;;;;;13.40;10.50;;;;;;;-1.34;100.00;100622.36;88328;275;137723;-74
2023/11/22 06:54:41;;;;;;;15.80;10.70;;;;;;;-1.35;100.00;100621.02;88587;279;24052;-74
2023/11/22 06:56:43;;;;;;;13.40;9.90;;;;;;;-1.38;100.00;100622.94;88343;275;136863;-82
2023/11/22 06:58:45;;;;;;;11.90;9.20;;;;;;;-1.41;100.00;100621.21;88263;276;22685;-74
2023/11/22 07:00:48;;;;;;;13.00;7.90;;;;;;;-1.40;100.00;100615.58;88224;274;136743;-75
2023/11/22 07:02:50;;;;;;;13.00;8.40;;;;;;;-1.48;100.00;100610.17;88269;274;24030;-70
2023/11/22 07:04:53;;;;;;;11.50;8.80;;;;;;;-1.46;100.00;100624.03;88433;274;138112;-71
2023/11/22 07:06:56;;;;;;;11.60;8.80;;;;;;;-1.52;100.00;100626.48;88578;274;24046;-73
2023/11/22 07:08:59;;;;;;;11.20;8.80;;;;;;;-1.53;100.00;100623.96;88443;275;136998;-73
2023/11/22 07:11:03;;;;;;;10.90;9.10;;;;;;;-1.49;100.00;100630.82;88336;275;25657;-70
2023/11/22 07:13:05;;;;;;;11.90;7.50;;;;;;;-1.46;100.00;100632.70;88499;281;137216;-72
2023/11/22 07:15:09;;;;;;;19.90;12.50;;;;;;;-1.42;100.00;100631.93;88353;282;22622;-75
2023/11/22 07:17:11;;;;;;;17.50;11.80;;;;;;;-1.44;100.00;100635.94;88295;281;137540;-76
2023/11/22 07:19:13;;;;;;;15.80;11.70;;;;;;;-1.50;100.00;100639.11;88351;281;25086;-80
2023/11/22 07:21:16;;;;;;;13.10;8.90;;;;;;;-1.58;100.00;100639.46;88379;281;142554;-80
2023/11/22 07:23:19;;;;;;;13.10;9.70;;;;;;;-1.63;100.00;100640.98;89466;281;25207;-74
2023/11/22 07:25:24;;;;;;;12.00;8.90;;;;;;;-1.68;100.00;100639.64;89714;281;137313;-78
2023/11/22 07:27:27;;;;;;;12.80;9.10;;;;;;;-1.67;100.00;100647.41;88767;279;25339;-77
2023/11/22 07:29:29;;;;;;;13.10;9.30;;;;;;;-1.66;100.00;100648.16;88977;282;136892;-72
2023/11/22 07:31:32;;;;;;;9.40;8.20;;;;;;;-1.63;100.00;100651.67;89133;282;22546;-82
2023/11/22 07:33:34;;;;;;;12.30;8.50;;;;;;;-1.65;100.00;100657.69;88545;281;136187;-76
2023/11/22 07:35:36;;;;;;;11.00;8.50;;;;;;;-1.66;100.00;100662.84;88363;281;25223;-77
2023/11/22 07:37:44;;;;;;;16.50;9.00;;;;;;;-1.66;100.00;100662.33;88335;274;136362;-77
2023/11/22 07:39:47;;;;;;;7.70;6.20;;;;;;;-1.67;100.00;100657.71;88345;282;22543;-84
2023/11/22 07:41:49;;;;;;;9.70;6.30;;;;;;;-1.69;100.00;100654.82;88310;282;137031;-79
2023/11/22 07:43:51;;;;;;;8.90;6.40;;;;;;;-1.73;100.00;100657.52;88477;275;22496;-75
2023/11/22 07:45:53;;;;;;;6.80;6.10;;;;;;;-1.78;100.00;100658.85;88639;277;136632;-79
2023/11/22 07:47:59;;;;;;;8.80;6.80;;;;;;;-1.77;100.00;100659.89;88477;273;22531;-75
2023/11/22 07:50:03;;;;;;;8.50;7.00;;;;;;;-1.79;100.00;100658.80;88462;281;135897;-83
2023/11/22 07:52:06;;;;;;;10.10;7.70;;;;;;;-1.88;100.00;100657.13;88346;277;136328;-83
2023/11/22 07:54:09;;;;;;;9.80;6.40;;;;;;;-1.94;100.00;100662.23;88971;275;25144;-74
2023/11/22 07:56:12;;;;;;;6.90;5.70;;;;;;;-1.96;100.00;100663.54;88521;282;136941;-81
2023/11/22 07:58:17;;;;;;;7.30;6.30;;;;;;;-1.92;100.00;100668.01;88563;277;22536;-79
2023/11/22 08:00:19;;;;;;;8.60;6.30;;;;;;;-1.90;100.00;100674.30;88442;279;138726;-84
2023/11/22 08:02:21;;;;;;;5.90;5.40;;;;;;;-1.89;100.00;100678.23;88572;281;22997;-82
2023/11/22 08:04:24;;;;;;;8.80;6.70;;;;;;;-1.91;100.00;100688.17;89055;281;136291;-79
2023/11/22 08:06:27;;;;;;;8.80;7.30;;;;;;;-1.99;100.00;100683.77;90047;281;22554;-76
2023/11/22 08:08:29;;;;;;;7.50;6.40;;;;;;;-2.07;100.00;100685.33;90222;279;136099;-76
2023/11/22 08:10:32;;;;;;;11.80;6.90;;;;;;;-2.10;100.00;100689.75;89927;274;22563;-78
2023/11/22 08:12:35;;;;;;;9.70;7.10;;;;;;;-2.06;100.00;100693.48;89083;281;137149;-84
2023/11/22 08:14:38;;;;;;;8.20;5.60;;;;;;;-2.01;100.00;100689.48;88779;277;25781;-78
2023/11/22 08:16:42;;;;;;;7.20;6.10;;;;;;;-1.99;100.00;100689.48;88505;274;136897;-78
2023/11/22 08:18:44;;;;;;;6.20;5.40;;;;;;;-1.97;100.00;100687.11;88622;274;24017;-77
2023/11/22 08:20:47;;;;;;;7.20;5.60;;;;;;;-1.97;100.00;100684.36;88774;274;136362;-73
2023/11/22 08:22:50;;;;;;;9.40;6.80;;;;;;;-2.03;100.00;100688.58;88588;275;25236;-84
2023/11/22 08:24:53;;;;;;;7.90;6.30;;;;;;;-2.14;100.00;100689.10;88411;275;136503;-76
2023/11/22 08:26:55;;;;;;;7.40;6.00;;;;;;;-2.21;100.00;100690.75;88633;274;22525;-81
2023/11/22 08:28:57;;;;;;;12.70;6.20;;;;;;;-2.21;100.00;100693.18;88529;283;137576;-85
2023/11/22 08:31:00;;;;;;;6.50;5.40;;;;;;;-2.20;100.00;100700.60;88527;274;22674;-82
2023/11/22 08:34:15;;;;;;;6.10;5.50;;;;;;;-2.15;100.00;100696.66;86748;306;603504;-78
2023/11/22 08:36:18;;;;;;;7.10;5.60;;;;;;;-2.14;100.00;100700.05;88301;279;135722;-75
2023/11/22 08:38:20;;;;;;;9.20;7.30;;;;;;;-2.17;100.00;100697.80;88762;285;23981;-79
2023/11/22 08:40:22;;;;;;;7.50;6.20;;;;;;;-2.26;100.00;100682.91;88243;277;137549;-78
2023/11/22 08:42:24;;;;;;;9.60;6.40;;;;;;;-2.18;100.00;100695.23;88511;279;22595;-79
2023/11/22 08:44:26;;;;;;;7.50;5.70;;;;;;;-2.20;100.00;100691.91;88590;278;135564;-72
2023/11/22 08:46:28;;;;;;;5.70;5.20;;;;;;;-2.21;100.00;100694.73;90064;279;22475;-76
2023/11/22 08:48:31;;;;;;;10.20;6.20;;;;;;;-2.20;100.00;100693.13;88976;281;861132;-81
2023/11/22 08:50:33;;;;;;;7.10;5.50;;;;;;;-2.19;100.00;100691.87;88518;280;22631;-80
2023/11/22 08:52:36;;;;;;;9.50;7.10;;;;;;;-2.19;100.00;100698.05;88296;281;138193;-79
2023/11/22 08:54:38;;;;;;;10.00;7.00;;;;;;;-2.22;100.00;100700.77;88359;277;22968;-78
2023/11/22 08:56:42;;;;;;;10.30;7.00;;;;;;;-2.30;100.00;100698.27;88324;277;136276;-77
2023/11/22 08:58:44;;;;;;;10.40;7.30;;;;;;;-2.38;100.00;100702.92;88480;277;22552;-79
2023/11/22 09:00:46;;;;;;;8.80;7.20;;;;;;;-2.40;100.00;100702.06;88441;278;141335;-78
2023/11/22 09:02:49;;;;;;;11.80;7.40;;;;;;;-2.42;100.00;100703.02;88587;284;22547;-78
2023/11/22 09:04:51;;;;;;;12.20;8.40;;;;;;;-2.43;100.00;100700.86;88385;278;136495;-75
2023/11/22 09:06:56;;;;;;;10.50;7.60;;;;;;;-2.42;100.00;100697.81;89550;275;22673;-72
2023/11/22 09:08:58;;;;;;;11.70;8.40;;;;;;;-2.41;100.00;100697.08;90415;277;136316;-77
2023/11/22 09:11:05;;;;;;;6.90;6.20;;;;;;;-2.38;100.00;100694.97;90223;284;23857;-70
2023/11/22 09:13:09;;;;;;;10.30;7.10;;;;;;;-2.35;100.00;100695.13;89649;284;135682;-75
2023/11/22 09:15:14;;;;;;;8.30;7.00;;;;;;;-2.37;100.00;100698.49;89792;280;22561;-70
2023/11/22 09:17:16;;;;;;;12.30;7.30;;;;;;;-2.33;100.00;100700.89;88638;284;138164;-68
2023/11/22 09:19:19;;;;;;;11.80;7.50;;;;;;;-2.24;100.00;100705.93;88309;284;22540;-72